sensor_id;sensor_type;location;lat;lon;timestamp;pressure;altitude;pressure_sealevel;temperature;humidity
60101;BME280;45978;53.646;55.930;2022-07-30T00:00:13;99563.19;;;18.27;76.70
60101;BME280;45978;53.646;55.930;2022-07-30T00:01:16;99556.06;;;18.27;76.52
60101;BME280;45978;53.646;55.930;2022-07-30T00:02:17;99555.13;;;18.28;76.76
60101;BME280;45978;53.646;55.930;2022-07-30T00:03:19;99557.28;;;18.36;76.79
60101;BME280;45978;53.646;55.930;2022-07-30T00:04:20;99558.44;;;18.32;76.67
60101;BME280;45978;53.646;55.930;2022-07-30T00:05:22;99557.47;;;18.33;76.71
60101;BME280;45978;53.646;55.930;2022-07-30T00:06:23;99559.19;;;18.34;76.79
60101;BME280;45978;53.646;55.930;2022-07-30T00:07:24;99548.66;;;18.32;76.74
60101;BME280;45978;53.646;55.930;2022-07-30T00:08:26;99556.91;;;18.42;76.76
60101;BME280;45978;53.646;55.930;2022-07-30T00:09:29;99554.97;;;18.44;76.61
60101;BME280;45978;53.646;55.930;2022-07-30T00:10:30;99557.25;;;18.50;76.46
60101;BME280;45978;53.646;55.930;2022-07-30T00:11:31;99550.75;;;18.54;76.24
60101;BME280;45978;53.646;55.930;2022-07-30T00:12:33;99555.13;;;18.55;76.42
60101;BME280;45978;53.646;55.930;2022-07-30T00:13:34;99554.06;;;18.58;76.28
60101;BME280;45978;53.646;55.930;2022-07-30T00:14:36;99561.97;;;18.59;76.13
60101;BME280;45978;53.646;55.930;2022-07-30T00:15:37;99555.88;;;18.57;76.04
60101;BME280;45978;53.646;55.930;2022-07-30T00:16:40;99559.06;;;18.63;75.85
60101;BME280;45978;53.646;55.930;2022-07-30T00:17:43;99561.00;;;18.60;75.66
60101;BME280;45978;53.646;55.930;2022-07-30T00:18:45;99558.22;;;18.62;75.63
60101;BME280;45978;53.646;55.930;2022-07-30T00:19:46;99559.16;;;18.61;75.70
60101;BME280;45978;53.646;55.930;2022-07-30T00:20:48;99553.22;;;18.57;75.73
60101;BME280;45978;53.646;55.930;2022-07-30T00:21:50;99551.50;;;18.56;75.73
60101;BME280;45978;53.646;55.930;2022-07-30T00:22:55;99558.81;;;18.53;75.92
60101;BME280;45978;53.646;55.930;2022-07-30T00:23:56;99565.03;;;18.53;75.50
60101;BME280;45978;53.646;55.930;2022-07-30T00:24:57;99559.81;;;18.52;75.73
60101;BME280;45978;53.646;55.930;2022-07-30T00:26:00;99557.13;;;18.52;75.65
60101;BME280;45978;53.646;55.930;2022-07-30T00:27:02;99560.84;;;18.49;75.79
60101;BME280;45978;53.646;55.930;2022-07-30T00:28:05;99565.03;;;18.53;75.83
60101;BME280;45978;53.646;55.930;2022-07-30T00:29:07;99563.97;;;18.56;75.84
60101;BME280;45978;53.646;55.930;2022-07-30T00:30:09;99556.06;;;18.54;75.74
60101;BME280;45978;53.646;55.930;2022-07-30T00:31:10;99561.22;;;18.57;75.87
60101;BME280;45978;53.646;55.930;2022-07-30T00:32:12;99559.38;;;18.58;75.74
60101;BME280;45978;53.646;55.930;2022-07-30T00:33:14;99562.81;;;18.60;75.82
60101;BME280;45978;53.646;55.930;2022-07-30T00:34:15;99561.81;;;18.61;75.68
60101;BME280;45978;53.646;55.930;2022-07-30T00:35:17;99554.81;;;18.60;75.87
60101;BME280;45978;53.646;55.930;2022-07-30T00:36:18;99565.16;;;18.65;75.68
60101;BME280;45978;53.646;55.930;2022-07-30T00:37:19;99564.94;;;18.68;75.57
60101;BME280;45978;53.646;55.930;2022-07-30T00:38:23;99572.94;;;18.68;75.76
60101;BME280;45978;53.646;55.930;2022-07-30T00:39:24;99562.47;;;18.65;75.64
60101;BME280;45978;53.646;55.930;2022-07-30T00:40:28;99568.56;;;18.67;75.61
60101;BME280;45978;53.646;55.930;2022-07-30T00:41:29;99570.19;;;18.69;75.51
60101;BME280;45978;53.646;55.930;2022-07-30T00:42:44;99564.31;;;18.64;75.51
60101;BME280;45978;53.646;55.930;2022-07-30T00:43:49;99570.28;;;18.68;75.51
60101;BME280;45978;53.646;55.930;2022-07-30T00:44:53;99571.97;;;18.69;75.50
60101;BME280;45978;53.646;55.930;2022-07-30T00:45:55;99567.72;;;18.66;75.48
60101;BME280;45978;53.646;55.930;2022-07-30T00:46:56;99556.13;;;18.67;75.38
60101;BME280;45978;53.646;55.930;2022-07-30T00:47:58;99576.03;;;18.74;75.16
60101;BME280;45978;53.646;55.930;2022-07-30T00:49:01;99571.47;;;18.76;75.19
60101;BME280;45978;53.646;55.930;2022-07-30T00:50:05;99564.22;;;18.78;75.11
60101;BME280;45978;53.646;55.930;2022-07-30T00:51:07;99561.50;;;18.80;75.13
60101;BME280;45978;53.646;55.930;2022-07-30T00:52:08;99573.44;;;18.87;75.00
60101;BME280;45978;53.646;55.930;2022-07-30T00:53:10;99579.41;;;18.91;75.08
60101;BME280;45978;53.646;55.930;2022-07-30T00:54:11;99567.81;;;18.92;74.96
60101;BME280;45978;53.646;55.930;2022-07-30T00:55:14;99569.94;;;18.99;74.75
60101;BME280;45978;53.646;55.930;2022-07-30T00:56:18;99564.53;;;19.01;74.90
60101;BME280;45978;53.646;55.930;2022-07-30T00:57:19;99561.13;;;18.99;74.84
60101;BME280;45978;53.646;55.930;2022-07-30T00:58:20;99569.63;;;19.04;74.94
60101;BME280;45978;53.646;55.930;2022-07-30T00:59:23;99565.06;;;19.06;74.75
60101;BME280;45978;53.646;55.930;2022-07-30T01:00:24;99567.84;;;19.05;74.62
60101;BME280;45978;53.646;55.930;2022-07-30T01:01:26;99565.97;;;18.92;74.89
60101;BME280;45978;53.646;55.930;2022-07-30T01:02:29;99567.16;;;18.88;74.89
60101;BME280;45978;53.646;55.930;2022-07-30T01:03:31;99567.91;;;18.90;74.97
60101;BME280;45978;53.646;55.930;2022-07-30T01:04:33;99571.22;;;18.94;74.81
60101;BME280;45978;53.646;55.930;2022-07-30T01:05:34;99566.72;;;18.94;74.74
60101;BME280;45978;53.646;55.930;2022-07-30T01:06:37;99569.84;;;19.01;74.63
60101;BME280;45978;53.646;55.930;2022-07-30T01:07:42;99569.53;;;19.06;74.59
60101;BME280;45978;53.646;55.930;2022-07-30T01:08:44;99568.34;;;19.10;74.59
60101;BME280;45978;53.646;55.930;2022-07-30T01:09:45;99574.44;;;19.12;74.48
60101;BME280;45978;53.646;55.930;2022-07-30T01:10:48;99574.00;;;19.18;74.65
60101;BME280;45978;53.646;55.930;2022-07-30T01:11:49;99576.47;;;19.21;74.04
60101;BME280;45978;53.646;55.930;2022-07-30T01:12:50;99578.81;;;19.26;73.92
60101;BME280;45978;53.646;55.930;2022-07-30T01:13:55;99579.47;;;19.29;73.64
60101;BME280;45978;53.646;55.930;2022-07-30T01:14:57;99572.31;;;19.30;73.36
60101;BME280;45978;53.646;55.930;2022-07-30T01:15:59;99575.53;;;19.35;73.28
60101;BME280;45978;53.646;55.930;2022-07-30T01:17:01;99580.50;;;19.39;73.30
60101;BME280;45978;53.646;55.930;2022-07-30T01:18:05;99557.72;;;19.35;73.16
60101;BME280;45978;53.646;55.930;2022-07-30T01:19:16;99574.00;;;19.44;72.96
60101;BME280;45978;53.646;55.930;2022-07-30T01:20:47;99583.81;;;19.43;73.03
60101;BME280;45978;53.646;55.930;2022-07-30T01:21:59;99578.50;;;19.43;72.86
60101;BME280;45978;53.646;55.930;2022-07-30T01:23:30;99575.53;;;19.48;72.85
60101;BME280;45978;53.646;55.930;2022-07-30T01:24:43;99573.69;;;19.61;72.53
60101;BME280;45978;53.646;55.930;2022-07-30T01:26:08;99581.25;;;19.67;72.24
60101;BME280;45978;53.646;55.930;2022-07-30T01:27:12;99578.38;;;19.70;71.90
60101;BME280;45978;53.646;55.930;2022-07-30T01:28:20;99573.25;;;19.67;71.79
60101;BME280;45978;53.646;55.930;2022-07-30T01:29:23;99569.97;;;19.64;72.02
60101;BME280;45978;53.646;55.930;2022-07-30T01:30:28;99587.16;;;19.72;71.80
60101;BME280;45978;53.646;55.930;2022-07-30T01:31:30;99578.31;;;19.72;71.75
60101;BME280;45978;53.646;55.930;2022-07-30T01:32:34;99573.25;;;19.67;71.80
60101;BME280;45978;53.646;55.930;2022-07-30T01:33:41;99584.28;;;19.75;71.76
60101;BME280;45978;53.646;55.930;2022-07-30T01:34:44;99570.22;;;19.73;71.85
60101;BME280;45978;53.646;55.930;2022-07-30T01:35:48;99584.69;;;19.82;71.72
60101;BME280;45978;53.646;55.930;2022-07-30T01:36:51;99576.59;;;19.84;71.76
60101;BME280;45978;53.646;55.930;2022-07-30T01:37:53;99582.31;;;19.90;71.39
60101;BME280;45978;53.646;55.930;2022-07-30T01:38:57;99570.72;;;19.91;71.36
60101;BME280;45978;53.646;55.930;2022-07-30T01:39:59;99582.06;;;20.06;71.41
60101;BME280;45978;53.646;55.930;2022-07-30T01:41:04;99588.03;;;20.23;70.97
60101;BME280;45978;53.646;55.930;2022-07-30T01:42:07;99585.81;;;20.41;70.46
60101;BME280;45978;53.646;55.930;2022-07-30T01:43:29;99589.59;;;20.49;70.41
60101;BME280;45978;53.646;55.930;2022-07-30T01:44:33;99580.53;;;20.52;70.25
60101;BME280;45978;53.646;55.930;2022-07-30T01:45:56;99578.63;;;20.54;69.95
60101;BME280;45978;53.646;55.930;2022-07-30T01:47:20;99573.84;;;20.46;69.97
60101;BME280;45978;53.646;55.930;2022-07-30T01:48:44;99587.28;;;20.45;70.29
60101;BME280;45978;53.646;55.930;2022-07-30T01:50:05;99584.00;;;20.41;70.44
60101;BME280;45978;53.646;55.930;2022-07-30T01:51:29;99585.09;;;20.38;70.31
60101;BME280;45978;53.646;55.930;2022-07-30T01:52:51;99585.81;;;20.41;70.10
60101;BME280;45978;53.646;55.930;2022-07-30T01:54:13;99584.94;;;20.40;70.19
60101;BME280;45978;53.646;55.930;2022-07-30T01:55:36;99589.53;;;20.38;70.55
60101;BME280;45978;53.646;55.930;2022-07-30T01:57:00;99589.03;;;20.33;70.63
60101;BME280;45978;53.646;55.930;2022-07-30T01:58:24;99584.44;;;20.35;70.42
60101;BME280;45978;53.646;55.930;2022-07-30T01:59:50;99592.22;;;20.38;70.70
60101;BME280;45978;53.646;55.930;2022-07-30T02:01:11;99591.38;;;20.37;70.70
60101;BME280;45978;53.646;55.930;2022-07-30T02:02:33;99594.88;;;20.38;70.60
60101;BME280;45978;53.646;55.930;2022-07-30T02:03:54;99585.19;;;20.37;71.01
60101;BME280;45978;53.646;55.930;2022-07-30T02:05:14;99592.44;;;20.35;71.17
60101;BME280;45978;53.646;55.930;2022-07-30T02:06:41;99603.22;;;20.33;71.10
60101;BME280;45978;53.646;55.930;2022-07-30T02:08:12;99591.19;;;20.28;71.24
60101;BME280;45978;53.646;55.930;2022-07-30T02:09:42;99607.88;;;20.18;71.39
60101;BME280;45978;53.646;55.930;2022-07-30T02:11:11;99598.69;;;20.23;71.52
60101;BME280;45978;53.646;55.930;2022-07-30T02:12:38;99586.31;;;20.22;71.34
60101;BME280;45978;53.646;55.930;2022-07-30T02:14:07;99585.22;;;20.24;71.53
60101;BME280;45978;53.646;55.930;2022-07-30T02:15:40;99587.75;;;20.38;71.29
60101;BME280;45978;53.646;55.930;2022-07-30T02:17:04;99589.97;;;20.45;70.92
60101;BME280;45978;53.646;55.930;2022-07-30T02:18:38;99587.41;;;20.43;70.82
60101;BME280;45978;53.646;55.930;2022-07-30T02:19:59;99586.44;;;20.44;70.89
60101;BME280;45978;53.646;55.930;2022-07-30T02:21:19;99601.75;;;20.53;70.68
60101;BME280;45978;53.646;55.930;2022-07-30T02:22:24;99602.22;;;20.60;70.50
60101;BME280;45978;53.646;55.930;2022-07-30T02:23:27;99589.47;;;20.64;70.37
60101;BME280;45978;53.646;55.930;2022-07-30T02:24:31;99582.81;;;20.69;70.15
60101;BME280;45978;53.646;55.930;2022-07-30T02:25:34;99588.56;;;20.76;70.12
60101;BME280;45978;53.646;55.930;2022-07-30T02:26:40;99593.81;;;20.77;69.94
60101;BME280;45978;53.646;55.930;2022-07-30T02:27:42;99589.94;;;20.82;69.93
60101;BME280;45978;53.646;55.930;2022-07-30T02:28:51;99587.13;;;20.83;69.64
60101;BME280;45978;53.646;55.930;2022-07-30T02:29:58;99592.50;;;20.94;69.71
60101;BME280;45978;53.646;55.930;2022-07-30T02:31:02;99594.09;;;20.97;69.80
60101;BME280;45978;53.646;55.930;2022-07-30T02:32:10;99600.47;;;21.07;69.19
60101;BME280;45978;53.646;55.930;2022-07-30T02:33:20;99595.97;;;21.08;69.00
60101;BME280;45978;53.646;55.930;2022-07-30T02:34:25;99597.44;;;21.12;69.12
60101;BME280;45978;53.646;55.930;2022-07-30T02:35:32;99601.19;;;21.21;68.99
60101;BME280;45978;53.646;55.930;2022-07-30T02:36:35;99596.59;;;21.23;68.91
60101;BME280;45978;53.646;55.930;2022-07-30T02:37:38;99599.88;;;21.26;69.11
60101;BME280;45978;53.646;55.930;2022-07-30T02:38:42;99600.25;;;21.22;68.75
60101;BME280;45978;53.646;55.930;2022-07-30T02:39:56;99596.72;;;21.21;68.89
60101;BME280;45978;53.646;55.930;2022-07-30T02:40:59;99591.72;;;21.16;69.11
60101;BME280;45978;53.646;55.930;2022-07-30T02:42:02;99595.50;;;21.14;69.16
60101;BME280;45978;53.646;55.930;2022-07-30T02:43:08;99595.25;;;21.17;69.27
60101;BME280;45978;53.646;55.930;2022-07-30T02:44:10;99593.19;;;21.21;69.06
60101;BME280;45978;53.646;55.930;2022-07-30T02:45:15;99589.94;;;21.17;68.85
60101;BME280;45978;53.646;55.930;2022-07-30T02:46:19;99584.69;;;21.15;68.94
60101;BME280;45978;53.646;55.930;2022-07-30T02:47:40;99593.56;;;21.16;69.04
60101;BME280;45978;53.646;55.930;2022-07-30T02:48:44;99591.38;;;21.21;69.00
60101;BME280;45978;53.646;55.930;2022-07-30T02:49:48;99587.63;;;21.24;69.08
60101;BME280;45978;53.646;55.930;2022-07-30T02:50:53;99579.97;;;21.30;68.81
60101;BME280;45978;53.646;55.930;2022-07-30T02:51:56;99593.09;;;21.33;68.84
60101;BME280;45978;53.646;55.930;2022-07-30T02:53:01;99595.06;;;21.31;68.84
60101;BME280;45978;53.646;55.930;2022-07-30T02:54:04;99589.72;;;21.31;68.62
60101;BME280;45978;53.646;55.930;2022-07-30T02:55:12;99592.75;;;21.27;68.66
60101;BME280;45978;53.646;55.930;2022-07-30T02:56:17;99599.88;;;21.26;68.65
60101;BME280;45978;53.646;55.930;2022-07-30T02:57:21;99593.81;;;21.24;68.84
60101;BME280;45978;53.646;55.930;2022-07-30T02:58:30;99601.34;;;21.30;68.59
60101;BME280;45978;53.646;55.930;2022-07-30T02:59:35;99597.00;;;21.41;68.36
60101;BME280;45978;53.646;55.930;2022-07-30T03:00:38;99593.16;;;21.45;68.01
60101;BME280;45978;53.646;55.930;2022-07-30T03:01:42;99600.34;;;21.55;67.65
60101;BME280;45978;53.646;55.930;2022-07-30T03:02:45;99585.13;;;21.56;67.39
60101;BME280;45978;53.646;55.930;2022-07-30T03:03:47;99603.16;;;21.77;67.11
60101;BME280;45978;53.646;55.930;2022-07-30T03:04:51;99605.56;;;21.80;66.79
60101;BME280;45978;53.646;55.930;2022-07-30T03:05:55;99597.81;;;21.88;66.36
60101;BME280;45978;53.646;55.930;2022-07-30T03:06:58;99600.34;;;22.01;66.13
60101;BME280;45978;53.646;55.930;2022-07-30T03:08:02;99592.94;;;22.04;65.51
60101;BME280;45978;53.646;55.930;2022-07-30T03:09:08;99603.97;;;22.22;65.20
60101;BME280;45978;53.646;55.930;2022-07-30T03:10:11;99570.31;;;22.08;65.05
60101;BME280;45978;53.646;55.930;2022-07-30T03:11:17;99603.09;;;22.44;64.84
60101;BME280;45978;53.646;55.930;2022-07-30T03:12:20;99599.84;;;22.73;64.06
60101;BME280;45978;53.646;55.930;2022-07-30T03:13:23;99592.22;;;22.89;63.41
60101;BME280;45978;53.646;55.930;2022-07-30T03:14:24;99586.09;;;23.10;62.72
60101;BME280;45978;53.646;55.930;2022-07-30T03:15:27;99582.06;;;23.25;61.95
60101;BME280;45978;53.646;55.930;2022-07-30T03:16:32;99586.59;;;23.46;61.19
60101;BME280;45978;53.646;55.930;2022-07-30T03:17:44;99589.03;;;23.59;61.09
60101;BME280;45978;53.646;55.930;2022-07-30T03:18:46;99587.66;;;23.64;61.11
60101;BME280;45978;53.646;55.930;2022-07-30T03:19:49;99586.03;;;23.73;60.80
60101;BME280;45978;53.646;55.930;2022-07-30T03:20:53;99574.19;;;23.76;60.50
60101;BME280;45978;53.646;55.930;2022-07-30T03:21:57;99588.66;;;23.94;60.35
60101;BME280;45978;53.646;55.930;2022-07-30T03:23:01;99591.50;;;23.92;60.28
60101;BME280;45978;53.646;55.930;2022-07-30T03:24:05;99593.50;;;24.00;59.47
60101;BME280;45978;53.646;55.930;2022-07-30T03:25:09;99587.72;;;24.05;59.33
60101;BME280;45978;53.646;55.930;2022-07-30T03:26:15;99589.59;;;24.14;59.04
60101;BME280;45978;53.646;55.930;2022-07-30T03:27:21;99597.81;;;24.22;59.04
60101;BME280;45978;53.646;55.930;2022-07-30T03:28:23;99595.28;;;24.30;58.84
60101;BME280;45978;53.646;55.930;2022-07-30T03:29:26;99591.19;;;24.36;58.28
60101;BME280;45978;53.646;55.930;2022-07-30T03:30:28;99596.72;;;24.44;58.11
60101;BME280;45978;53.646;55.930;2022-07-30T03:31:31;99591.09;;;24.47;57.85
60101;BME280;45978;53.646;55.930;2022-07-30T03:32:34;99602.16;;;24.64;57.66
60101;BME280;45978;53.646;55.930;2022-07-30T03:33:36;99587.41;;;24.48;57.46
60101;BME280;45978;53.646;55.930;2022-07-30T03:34:38;99594.22;;;24.53;57.21
60101;BME280;45978;53.646;55.930;2022-07-30T03:35:42;99594.66;;;24.58;57.31
60101;BME280;45978;53.646;55.930;2022-07-30T03:36:44;99580.63;;;24.44;57.50
60101;BME280;45978;53.646;55.930;2022-07-30T03:37:53;99590.69;;;24.52;57.52
60101;BME280;45978;53.646;55.930;2022-07-30T03:38:55;99592.38;;;24.63;56.88
60101;BME280;45978;53.646;55.930;2022-07-30T03:39:57;99588.88;;;24.72;56.66
60101;BME280;45978;53.646;55.930;2022-07-30T03:41:01;99600.88;;;24.97;56.62
60101;BME280;45978;53.646;55.930;2022-07-30T03:42:05;99588.84;;;25.11;55.98
60101;BME280;45978;53.646;55.930;2022-07-30T03:43:08;99592.84;;;25.26;55.45
60101;BME280;45978;53.646;55.930;2022-07-30T03:44:10;99592.66;;;25.38;55.26
60101;BME280;45978;53.646;55.930;2022-07-30T03:45:12;99594.09;;;25.32;55.36
60101;BME280;45978;53.646;55.930;2022-07-30T03:46:14;99592.66;;;25.38;54.78
60101;BME280;45978;53.646;55.930;2022-07-30T03:47:22;99595.28;;;25.57;54.36
60101;BME280;45978;53.646;55.930;2022-07-30T03:48:27;99593.66;;;25.84;53.66
60101;BME280;45978;53.646;55.930;2022-07-30T03:49:29;99594.47;;;26.22;52.88
60101;BME280;45978;53.646;55.930;2022-07-30T03:50:30;99584.88;;;26.65;51.96
60101;BME280;45978;53.646;55.930;2022-07-30T03:51:36;99598.78;;;26.96;50.93
60101;BME280;45978;53.646;55.930;2022-07-30T03:52:39;99595.09;;;27.15;50.50
60101;BME280;45978;53.646;55.930;2022-07-30T03:53:44;99595.00;;;27.07;49.89
60101;BME280;45978;53.646;55.930;2022-07-30T03:55:16;99589.56;;;26.81;50.75
60101;BME280;45978;53.646;55.930;2022-07-30T03:56:24;99604.44;;;26.57;51.30
60101;BME280;45978;53.646;55.930;2022-07-30T03:57:33;99602.34;;;26.33;52.07
60101;BME280;45978;53.646;55.930;2022-07-30T03:58:36;99600.63;;;26.32;51.97
60101;BME280;45978;53.646;55.930;2022-07-30T03:59:42;99606.06;;;26.50;51.69
60101;BME280;45978;53.646;55.930;2022-07-30T04:00:47;99607.50;;;26.72;50.91
60101;BME280;45978;53.646;55.930;2022-07-30T04:01:49;99598.34;;;26.83;50.39
60101;BME280;45978;53.646;55.930;2022-07-30T04:03:03;99593.16;;;27.25;49.46
60101;BME280;45978;53.646;55.930;2022-07-30T04:04:21;99595.63;;;27.37;49.03
60101;BME280;45978;53.646;55.930;2022-07-30T04:05:44;99603.41;;;27.04;49.27
60101;BME280;45978;53.646;55.930;2022-07-30T04:06:46;99609.25;;;26.63;50.26
60101;BME280;45978;53.646;55.930;2022-07-30T04:07:47;99612.22;;;26.42;50.86
60101;BME280;45978;53.646;55.930;2022-07-30T04:08:50;99602.84;;;26.46;50.72
60101;BME280;45978;53.646;55.930;2022-07-30T04:09:52;99609.97;;;26.38;50.86
60101;BME280;45978;53.646;55.930;2022-07-30T04:11:13;99608.22;;;26.46;51.03
60101;BME280;45978;53.646;55.930;2022-07-30T04:12:14;99605.66;;;26.91;50.57
60101;BME280;45978;53.646;55.930;2022-07-30T04:13:16;99597.81;;;27.68;48.60
60101;BME280;45978;53.646;55.930;2022-07-30T04:14:21;99603.78;;;28.56;46.36
60101;BME280;45978;53.646;55.930;2022-07-30T04:15:22;99596.59;;;29.14;45.36
60101;BME280;45978;53.646;55.930;2022-07-30T04:16:38;99590.47;;;29.45;43.30
60101;BME280;45978;53.646;55.930;2022-07-30T04:17:52;99601.09;;;29.79;42.59
60101;BME280;45978;53.646;55.930;2022-07-30T04:18:55;99598.94;;;30.14;42.92
60101;BME280;45978;53.646;55.930;2022-07-30T04:20:05;99599.94;;;30.76;40.15
60101;BME280;45978;53.646;55.930;2022-07-30T04:21:10;99600.78;;;31.23;38.99
60101;BME280;45978;53.646;55.930;2022-07-30T04:22:12;99589.84;;;31.84;37.78
60101;BME280;45978;53.646;55.930;2022-07-30T04:23:17;99596.63;;;32.39;37.11
60101;BME280;45978;53.646;55.930;2022-07-30T04:24:21;99588.59;;;32.89;36.31
60101;BME280;45978;53.646;55.930;2022-07-30T04:25:24;99598.66;;;33.38;35.75
60101;BME280;45978;53.646;55.930;2022-07-30T04:26:29;99587.31;;;33.98;34.55
60101;BME280;45978;53.646;55.930;2022-07-30T04:27:33;99589.22;;;33.62;35.11
60101;BME280;45978;53.646;55.930;2022-07-30T04:28:35;99586.50;;;32.91;35.67
60101;BME280;45978;53.646;55.930;2022-07-30T04:29:37;99598.53;;;33.25;35.56
60101;BME280;45978;53.646;55.930;2022-07-30T04:30:40;99585.47;;;33.63;34.59
60101;BME280;45978;53.646;55.930;2022-07-30T04:31:41;99591.22;;;34.23;33.62
60101;BME280;45978;53.646;55.930;2022-07-30T04:33:07;99590.50;;;34.56;32.72
60101;BME280;45978;53.646;55.930;2022-07-30T04:34:26;99585.03;;;34.56;32.44
60101;BME280;45978;53.646;55.930;2022-07-30T04:35:31;99588.16;;;34.40;32.57
60101;BME280;45978;53.646;55.930;2022-07-30T04:36:50;99585.59;;;33.55;33.92
60101;BME280;45978;53.646;55.930;2022-07-30T04:37:55;99582.81;;;33.77;33.66
60101;BME280;45978;53.646;55.930;2022-07-30T04:38:57;99587.19;;;33.71;33.60
60101;BME280;45978;53.646;55.930;2022-07-30T04:39:59;99583.81;;;33.12;33.76
60101;BME280;45978;53.646;55.930;2022-07-30T04:41:01;99585.72;;;32.75;34.62
60101;BME280;45978;53.646;55.930;2022-07-30T04:42:07;99600.25;;;32.83;34.28
60101;BME280;45978;53.646;55.930;2022-07-30T04:43:10;99585.06;;;32.95;33.71
60101;BME280;45978;53.646;55.930;2022-07-30T04:44:14;99588.53;;;33.60;33.62
60101;BME280;45978;53.646;55.930;2022-07-30T04:45:27;99584.16;;;34.36;32.07
60101;BME280;45978;53.646;55.930;2022-07-30T04:46:32;99590.34;;;34.78;31.29
60101;BME280;45978;53.646;55.930;2022-07-30T04:47:36;99585.75;;;34.85;30.53
60101;BME280;45978;53.646;55.930;2022-07-30T04:49:15;99585.88;;;34.57;31.02
60101;BME280;45978;53.646;55.930;2022-07-30T04:50:20;99588.59;;;34.57;30.85
60101;BME280;45978;53.646;55.930;2022-07-30T04:51:31;99589.22;;;34.52;29.92
60101;BME280;45978;53.646;55.930;2022-07-30T04:52:35;99586.38;;;34.94;30.07
60101;BME280;45978;53.646;55.930;2022-07-30T04:53:39;99581.16;;;35.12;29.79
60101;BME280;45978;53.646;55.930;2022-07-30T04:54:52;99589.78;;;35.22;29.92
60101;BME280;45978;53.646;55.930;2022-07-30T04:55:55;99586.84;;;35.17;29.64
60101;BME280;45978;53.646;55.930;2022-07-30T04:57:02;99579.88;;;35.48;29.72
60101;BME280;45978;53.646;55.930;2022-07-30T04:58:04;99581.00;;;36.05;29.24
60101;BME280;45978;53.646;55.930;2022-07-30T04:59:09;99574.47;;;36.52;28.24
60101;BME280;45978;53.646;55.930;2022-07-30T05:00:12;99583.41;;;37.04;28.27
60101;BME280;45978;53.646;55.930;2022-07-30T05:01:24;99575.19;;;37.04;27.64
60101;BME280;45978;53.646;55.930;2022-07-30T05:02:29;99570.06;;;36.51;27.75
60101;BME280;45978;53.646;55.930;2022-07-30T05:03:30;99579.91;;;36.58;28.16
60101;BME280;45978;53.646;55.930;2022-07-30T05:04:35;99576.72;;;36.61;28.24
60101;BME280;45978;53.646;55.930;2022-07-30T05:05:38;99581.38;;;36.67;27.92
60101;BME280;45978;53.646;55.930;2022-07-30T05:06:43;99577.47;;;36.43;28.15
60101;BME280;45978;53.646;55.930;2022-07-30T05:07:46;99580.63;;;36.47;28.07
60101;BME280;45978;53.646;55.930;2022-07-30T05:08:49;99578.72;;;35.96;28.94
60101;BME280;45978;53.646;55.930;2022-07-30T05:09:50;99588.53;;;36.10;28.55
60101;BME280;45978;53.646;55.930;2022-07-30T05:10:52;99580.41;;;35.97;28.59
60101;BME280;45978;53.646;55.930;2022-07-30T05:11:55;99580.50;;;35.43;29.12
60101;BME280;45978;53.646;55.930;2022-07-30T05:12:58;99582.59;;;35.08;29.95
60101;BME280;45978;53.646;55.930;2022-07-30T05:14:01;99587.25;;;35.21;29.55
60101;BME280;45978;53.646;55.930;2022-07-30T05:15:07;99572.97;;;35.32;29.34
60101;BME280;45978;53.646;55.930;2022-07-30T05:16:10;99579.00;;;35.74;28.97
60101;BME280;45978;53.646;55.930;2022-07-30T05:17:11;99575.25;;;36.27;28.52
60101;BME280;45978;53.646;55.930;2022-07-30T05:18:13;99582.19;;;36.61;27.99
60101;BME280;45978;53.646;55.930;2022-07-30T05:19:18;99579.53;;;36.86;27.65
60101;BME280;45978;53.646;55.930;2022-07-30T05:20:19;99571.78;;;36.83;27.31
60101;BME280;45978;53.646;55.930;2022-07-30T05:21:34;99570.78;;;36.78;27.35
60101;BME280;45978;53.646;55.930;2022-07-30T05:22:35;99576.88;;;36.80;27.59
60101;BME280;45978;53.646;55.930;2022-07-30T05:23:37;99576.66;;;36.81;27.47
60101;BME280;45978;53.646;55.930;2022-07-30T05:24:47;99575.50;;;36.89;26.83
60101;BME280;45978;53.646;55.930;2022-07-30T05:25:48;99576.16;;;36.91;26.82
60101;BME280;45978;53.646;55.930;2022-07-30T05:27:00;99574.97;;;37.05;26.86
60101;BME280;45978;53.646;55.930;2022-07-30T05:28:03;99571.75;;;37.15;26.75
60101;BME280;45978;53.646;55.930;2022-07-30T05:29:06;99572.59;;;37.16;27.03
60101;BME280;45978;53.646;55.930;2022-07-30T05:30:27;99560.34;;;37.18;27.27
60101;BME280;45978;53.646;55.930;2022-07-30T05:31:30;99564.88;;;37.50;26.80
60101;BME280;45978;53.646;55.930;2022-07-30T05:32:35;99562.22;;;37.43;26.87
60101;BME280;45978;53.646;55.930;2022-07-30T05:33:37;99562.03;;;37.63;26.88
60101;BME280;45978;53.646;55.930;2022-07-30T05:34:38;99551.31;;;37.61;26.82
60101;BME280;45978;53.646;55.930;2022-07-30T05:35:40;99555.41;;;37.52;26.59
60101;BME280;45978;53.646;55.930;2022-07-30T05:36:42;99562.69;;;37.58;26.90
60101;BME280;45978;53.646;55.930;2022-07-30T05:37:46;99555.81;;;37.31;27.02
60101;BME280;45978;53.646;55.930;2022-07-30T05:38:49;99553.41;;;37.41;27.19
60101;BME280;45978;53.646;55.930;2022-07-30T05:40:09;99531.31;;;37.11;26.83
60101;BME280;45978;53.646;55.930;2022-07-30T05:41:10;99563.44;;;37.47;26.43
60101;BME280;45978;53.646;55.930;2022-07-30T05:42:32;99560.94;;;37.45;26.57
60101;BME280;45978;53.646;55.930;2022-07-30T05:43:34;99551.13;;;37.56;26.49
60101;BME280;45978;53.646;55.930;2022-07-30T05:44:35;99560.19;;;37.57;27.00
60101;BME280;45978;53.646;55.930;2022-07-30T05:45:38;99546.19;;;37.47;26.36
60101;BME280;45978;53.646;55.930;2022-07-30T05:46:40;99553.47;;;37.53;26.16
60101;BME280;45978;53.646;55.930;2022-07-30T05:47:44;99560.22;;;37.32;26.13